sensor_id;sensor_type;location;lat;lon;timestamp;temperature;humidity
43320;DHT22;28914;48.722;9.332;2024-01-07T00:01:26;9.40;82.90
43320;DHT22;28914;48.722;9.332;2024-01-07T00:06:46;9.50;82.90
43320;DHT22;28914;48.722;9.332;2024-01-07T00:12:06;9.50;82.90
43320;DHT22;28914;48.722;9.332;2024-01-07T00:17:25;9.50;82.80
43320;DHT22;28914;48.722;9.332;2024-01-07T00:22:44;9.40;82.80
43320;DHT22;28914;48.722;9.332;2024-01-07T00:28:04;9.40;82.80
43320;DHT22;28914;48.722;9.332;2024-01-07T00:33:23;9.50;82.90
43320;DHT22;28914;48.722;9.332;2024-01-07T00:38:43;9.50;83.00
43320;DHT22;28914;48.722;9.332;2024-01-07T00:44:02;9.50;82.90
43320;DHT22;28914;48.722;9.332;2024-01-07T00:49:21;9.40;82.80
43320;DHT22;28914;48.722;9.332;2024-01-07T00:54:40;9.50;83.00
43320;DHT22;28914;48.722;9.332;2024-01-07T01:00:00;9.50;82.90
43320;DHT22;28914;48.722;9.332;2024-01-07T01:05:23;9.50;82.80
43320;DHT22;28914;48.722;9.332;2024-01-07T01:10:42;9.50;82.80
43320;DHT22;28914;48.722;9.332;2024-01-07T01:16:02;9.50;82.80
43320;DHT22;28914;48.722;9.332;2024-01-07T01:21:21;9.50;82.80
43320;DHT22;28914;48.722;9.332;2024-01-07T01:26:40;9.60;83.00
43320;DHT22;28914;48.722;9.332;2024-01-07T01:31:59;9.60;83.00
43320;DHT22;28914;48.722;9.332;2024-01-07T01:37:18;9.60;82.80
43320;DHT22;28914;48.722;9.332;2024-01-07T01:42:38;9.60;82.90
43320;DHT22;28914;48.722;9.332;2024-01-07T01:47:57;9.60;82.80
43320;DHT22;28914;48.722;9.332;2024-01-07T01:53:16;9.60;82.70
43320;DHT22;28914;48.722;9.332;2024-01-07T01:58:36;9.60;82.70
43320;DHT22;28914;48.722;9.332;2024-01-07T02:03:55;9.60;82.70
43320;DHT22;28914;48.722;9.332;2024-01-07T02:09:15;9.60;82.70
43320;DHT22;28914;48.722;9.332;2024-01-07T02:14:34;9.60;82.60
43320;DHT22;28914;48.722;9.332;2024-01-07T02:19:53;9.60;82.60
43320;DHT22;28914;48.722;9.332;2024-01-07T02:25:12;9.60;82.50
43320;DHT22;28914;48.722;9.332;2024-01-07T02:30:32;9.60;82.50
43320;DHT22;28914;48.722;9.332;2024-01-07T02:35:51;9.60;82.40
43320;DHT22;28914;48.722;9.332;2024-01-07T02:41:10;9.60;82.40
43320;DHT22;28914;48.722;9.332;2024-01-07T02:46:31;9.60;82.50
43320;DHT22;28914;48.722;9.332;2024-01-07T02:51:50;9.60;82.30
43320;DHT22;28914;48.722;9.332;2024-01-07T02:57:10;9.60;82.10
43320;DHT22;28914;48.722;9.332;2024-01-07T03:02:29;9.50;82.10
43320;DHT22;28914;48.722;9.332;2024-01-07T03:07:48;9.50;82.00
43320;DHT22;28914;48.722;9.332;2024-01-07T03:13:07;9.50;82.00
43320;DHT22;28914;48.722;9.332;2024-01-07T03:18:27;9.40;82.70
43320;DHT22;28914;48.722;9.332;2024-01-07T03:23:48;9.40;81.90
43320;DHT22;28914;48.722;9.332;2024-01-07T03:29:08;9.40;82.10
43320;DHT22;28914;48.722;9.332;2024-01-07T03:34:27;9.40;82.10
43320;DHT22;28914;48.722;9.332;2024-01-07T03:39:47;9.40;82.10
43320;DHT22;28914;48.722;9.332;2024-01-07T03:45:06;9.30;82.10
43320;DHT22;28914;48.722;9.332;2024-01-07T03:50:25;9.30;82.10
43320;DHT22;28914;48.722;9.332;2024-01-07T03:55:45;9.20;82.00
43320;DHT22;28914;48.722;9.332;2024-01-07T04:01:04;9.20;81.90
43320;DHT22;28914;48.722;9.332;2024-01-07T04:06:24;9.10;81.80
43320;DHT22;28914;48.722;9.332;2024-01-07T04:11:43;9.10;82.00
43320;DHT22;28914;48.722;9.332;2024-01-07T04:17:02;9.00;82.00
43320;DHT22;28914;48.722;9.332;2024-01-07T04:22:21;9.00;82.10
43320;DHT22;28914;48.722;9.332;2024-01-07T04:27:41;9.00;83.10
43320;DHT22;28914;48.722;9.332;2024-01-07T04:33:01;8.90;82.40
43320;DHT22;28914;48.722;9.332;2024-01-07T04:38:20;8.90;82.30
43320;DHT22;28914;48.722;9.332;2024-01-07T04:43:39;8.90;82.40
43320;DHT22;28914;48.722;9.332;2024-01-07T04:48:59;8.90;82.50
43320;DHT22;28914;48.722;9.332;2024-01-07T04:54:18;8.90;82.60
43320;DHT22;28914;48.722;9.332;2024-01-07T04:59:37;9.00;82.70
43320;DHT22;28914;48.722;9.332;2024-01-07T05:04:56;9.00;82.70
43320;DHT22;28914;48.722;9.332;2024-01-07T05:10:16;9.00;82.50
43320;DHT22;28914;48.722;9.332;2024-01-07T05:15:35;8.90;82.40
43320;DHT22;28914;48.722;9.332;2024-01-07T05:20:54;8.80;82.30
43320;DHT22;28914;48.722;9.332;2024-01-07T05:26:13;8.80;82.50
43320;DHT22;28914;48.722;9.332;2024-01-07T05:31:32;8.80;82.70
43320;DHT22;28914;48.722;9.332;2024-01-07T05:36:51;8.70;82.60
43320;DHT22;28914;48.722;9.332;2024-01-07T05:42:11;8.70;82.80
43320;DHT22;28914;48.722;9.332;2024-01-07T05:47:30;8.70;82.90
43320;DHT22;28914;48.722;9.332;2024-01-07T05:52:49;8.70;82.80
43320;DHT22;28914;48.722;9.332;2024-01-07T05:58:08;8.70;83.00
43320;DHT22;28914;48.722;9.332;2024-01-07T06:03:27;8.70;82.90
43320;DHT22;28914;48.722;9.332;2024-01-07T06:08:47;8.70;83.00
43320;DHT22;28914;48.722;9.332;2024-01-07T06:14:06;8.70;83.00
43320;DHT22;28914;48.722;9.332;2024-01-07T06:19:26;8.80;83.20
43320;DHT22;28914;48.722;9.332;2024-01-07T06:24:45;8.80;83.20
43320;DHT22;28914;48.722;9.332;2024-01-07T06:30:05;8.80;83.20
43320;DHT22;28914;48.722;9.332;2024-01-07T06:35:25;8.90;83.30
43320;DHT22;28914;48.722;9.332;2024-01-07T06:40:44;8.90;83.20
43320;DHT22;28914;48.722;9.332;2024-01-07T06:46:03;8.90;83.20
43320;DHT22;28914;48.722;9.332;2024-01-07T06:51:23;8.90;83.20
43320;DHT22;28914;48.722;9.332;2024-01-07T06:56:43;8.90;83.00
43320;DHT22;28914;48.722;9.332;2024-01-07T07:02:02;8.80;83.00
43320;DHT22;28914;48.722;9.332;2024-01-07T07:07:21;8.80;83.00
43320;DHT22;28914;48.722;9.332;2024-01-07T07:12:40;8.80;83.00
43320;DHT22;28914;48.722;9.332;2024-01-07T07:17:59;8.70;82.90
43320;DHT22;28914;48.722;9.332;2024-01-07T07:23:18;8.70;83.10
43320;DHT22;28914;48.722;9.332;2024-01-07T07:28:38;8.70;83.90
43320;DHT22;28914;48.722;9.332;2024-01-07T07:33:57;8.70;83.10
43320;DHT22;28914;48.722;9.332;2024-01-07T07:39:16;8.70;83.00
43320;DHT22;28914;48.722;9.332;2024-01-07T07:44:35;8.70;83.10
43320;DHT22;28914;48.722;9.332;2024-01-07T07:49:55;8.70;83.10
43320;DHT22;28914;48.722;9.332;2024-01-07T07:55:14;8.70;82.70
43320;DHT22;28914;48.722;9.332;2024-01-07T08:00:33;8.70;82.70
43320;DHT22;28914;48.722;9.332;2024-01-07T08:05:52;8.60;82.50
43320;DHT22;28914;48.722;9.332;2024-01-07T08:11:12;8.60;82.30
43320;DHT22;28914;48.722;9.332;2024-01-07T08:16:31;8.50;82.00
43320;DHT22;28914;48.722;9.332;2024-01-07T08:21:50;8.50;81.70
43320;DHT22;28914;48.722;9.332;2024-01-07T08:27:10;8.50;81.80
43320;DHT22;28914;48.722;9.332;2024-01-07T08:32:29;8.60;82.50
43320;DHT22;28914;48.722;9.332;2024-01-07T08:37:48;8.60;81.30
43320;DHT22;28914;48.722;9.332;2024-01-07T08:43:08;8.60;80.80
43320;DHT22;28914;48.722;9.332;2024-01-07T08:48:27;8.60;80.40
43320;DHT22;28914;48.722;9.332;2024-01-07T08:53:46;8.60;80.10
43320;DHT22;28914;48.722;9.332;2024-01-07T08:59:05;8.60;79.80
43320;DHT22;28914;48.722;9.332;2024-01-07T09:04:24;8.60;79.10
43320;DHT22;28914;48.722;9.332;2024-01-07T09:09:44;8.60;79.50
43320;DHT22;28914;48.722;9.332;2024-01-07T09:15:04;8.60;79.30
43320;DHT22;28914;48.722;9.332;2024-01-07T09:20:26;8.60;79.30
43320;DHT22;28914;48.722;9.332;2024-01-07T09:25:46;8.70;79.10
43320;DHT22;28914;48.722;9.332;2024-01-07T09:31:05;8.70;79.10
43320;DHT22;28914;48.722;9.332;2024-01-07T09:36:24;8.70;78.80
43320;DHT22;28914;48.722;9.332;2024-01-07T09:41:43;8.60;76.80
43320;DHT22;28914;48.722;9.332;2024-01-07T09:47:02;8.50;75.30
43320;DHT22;28914;48.722;9.332;2024-01-07T09:52:23;8.40;76.40
43320;DHT22;28914;48.722;9.332;2024-01-07T09:57:44;8.40;77.10
43320;DHT22;28914;48.722;9.332;2024-01-07T10:03:03;8.30;76.90
43320;DHT22;28914;48.722;9.332;2024-01-07T10:08:22;8.40;77.20
43320;DHT22;28914;48.722;9.332;2024-01-07T10:13:45;8.30;77.00
43320;DHT22;28914;48.722;9.332;2024-01-07T10:19:07;8.30;77.30
43320;DHT22;28914;48.722;9.332;2024-01-07T10:24:26;8.30;77.10
43320;DHT22;28914;48.722;9.332;2024-01-07T10:29:50;8.20;77.00
43320;DHT22;28914;48.722;9.332;2024-01-07T10:35:12;8.20;77.20
43320;DHT22;28914;48.722;9.332;2024-01-07T10:40:33;8.20;77.10
43320;DHT22;28914;48.722;9.332;2024-01-07T10:45:54;8.20;77.10
43320;DHT22;28914;48.722;9.332;2024-01-07T10:51:14;8.20;76.70
43320;DHT22;28914;48.722;9.332;2024-01-07T10:56:39;8.10;76.50
43320;DHT22;28914;48.722;9.332;2024-01-07T11:02:00;8.10;76.70
43320;DHT22;28914;48.722;9.332;2024-01-07T11:07:43;8.00;76.50
43320;DHT22;28914;48.722;9.332;2024-01-07T11:13:04;8.00;76.40
43320;DHT22;28914;48.722;9.332;2024-01-07T11:18:23;7.90;76.30
43320;DHT22;28914;48.722;9.332;2024-01-07T11:23:45;7.90;76.30
43320;DHT22;28914;48.722;9.332;2024-01-07T11:29:08;7.90;76.20
43320;DHT22;28914;48.722;9.332;2024-01-07T11:34:43;8.00;76.50
43320;DHT22;28914;48.722;9.332;2024-01-07T11:40:06;8.10;76.30
43320;DHT22;28914;48.722;9.332;2024-01-07T11:45:26;8.10;76.50
43320;DHT22;28914;48.722;9.332;2024-01-07T11:50:45;8.20;76.30
43320;DHT22;28914;48.722;9.332;2024-01-07T11:56:05;8.20;75.90
43320;DHT22;28914;48.722;9.332;2024-01-07T12:01:24;8.20;75.60
43320;DHT22;28914;48.722;9.332;2024-01-07T12:06:45;8.20;75.30
43320;DHT22;28914;48.722;9.332;2024-01-07T12:12:04;8.20;75.00
43320;DHT22;28914;48.722;9.332;2024-01-07T12:17:24;8.10;74.30
43320;DHT22;28914;48.722;9.332;2024-01-07T12:22:43;8.10;74.10
43320;DHT22;28914;48.722;9.332;2024-01-07T12:28:06;8.00;72.90
43320;DHT22;28914;48.722;9.332;2024-01-07T12:33:25;7.90;73.00
43320;DHT22;28914;48.722;9.332;2024-01-07T12:38:45;7.80;73.80
43320;DHT22;28914;48.722;9.332;2024-01-07T12:44:04;7.80;73.50
43320;DHT22;28914;48.722;9.332;2024-01-07T12:49:23;7.70;73.60
43320;DHT22;28914;48.722;9.332;2024-01-07T12:54:42;7.70;73.90
43320;DHT22;28914;48.722;9.332;2024-01-07T13:00:03;7.70;74.00
43320;DHT22;28914;48.722;9.332;2024-01-07T13:05:25;7.60;73.70
43320;DHT22;28914;48.722;9.332;2024-01-07T13:10:45;7.60;73.80
43320;DHT22;28914;48.722;9.332;2024-01-07T13:16:05;7.50;73.70
43320;DHT22;28914;48.722;9.332;2024-01-07T13:21:24;7.50;73.60
43320;DHT22;28914;48.722;9.332;2024-01-07T13:26:43;7.40;74.80
43320;DHT22;28914;48.722;9.332;2024-01-07T13:32:03;7.40;73.80
43320;DHT22;28914;48.722;9.332;2024-01-07T13:37:22;7.40;73.50
43320;DHT22;28914;48.722;9.332;2024-01-07T13:42:41;7.30;73.60
43320;DHT22;28914;48.722;9.332;2024-01-07T13:48:01;7.30;73.60
43320;DHT22;28914;48.722;9.332;2024-01-07T13:53:20;7.20;73.80
43320;DHT22;28914;48.722;9.332;2024-01-07T13:58:39;7.10;74.10
43320;DHT22;28914;48.722;9.332;2024-01-07T14:03:58;7.00;74.00
43320;DHT22;28914;48.722;9.332;2024-01-07T14:09:18;6.90;74.30
43320;DHT22;28914;48.722;9.332;2024-01-07T14:14:37;6.80;74.50
43320;DHT22;28914;48.722;9.332;2024-01-07T14:19:56;6.70;74.60
43320;DHT22;28914;48.722;9.332;2024-01-07T14:25:15;6.70;74.80
43320;DHT22;28914;48.722;9.332;2024-01-07T14:30:34;6.60;74.80
43320;DHT22;28914;48.722;9.332;2024-01-07T14:35:53;6.50;75.00
43320;DHT22;28914;48.722;9.332;2024-01-07T14:41:16;6.40;75.10
43320;DHT22;28914;48.722;9.332;2024-01-07T14:46:34;6.40;75.30
43320;DHT22;28914;48.722;9.332;2024-01-07T14:51:54;6.30;75.80
43320;DHT22;28914;48.722;9.332;2024-01-07T14:57:13;6.20;75.80
43320;DHT22;28914;48.722;9.332;2024-01-07T15:02:32;6.20;76.00
43320;DHT22;28914;48.722;9.332;2024-01-07T15:07:52;6.10;76.10
43320;DHT22;28914;48.722;9.332;2024-01-07T15:13:11;6.10;76.10
43320;DHT22;28914;48.722;9.332;2024-01-07T15:18:30;6.00;76.00
43320;DHT22;28914;48.722;9.332;2024-01-07T15:23:50;6.00;76.20
43320;DHT22;28914;48.722;9.332;2024-01-07T15:29:09;5.90;76.10
43320;DHT22;28914;48.722;9.332;2024-01-07T15:34:28;5.90;76.30
43320;DHT22;28914;48.722;9.332;2024-01-07T15:39:47;5.90;76.50
43320;DHT22;28914;48.722;9.332;2024-01-07T15:45:07;5.90;76.70
43320;DHT22;28914;48.722;9.332;2024-01-07T15:50:28;5.80;76.70
43320;DHT22;28914;48.722;9.332;2024-01-07T15:55:48;5.70;77.00
43320;DHT22;28914;48.722;9.332;2024-01-07T16:01:07;5.70;77.20
43320;DHT22;28914;48.722;9.332;2024-01-07T16:06:26;5.70;77.50
43320;DHT22;28914;48.722;9.332;2024-01-07T16:11:45;5.60;77.60
43320;DHT22;28914;48.722;9.332;2024-01-07T16:17:05;5.60;77.80
43320;DHT22;28914;48.722;9.332;2024-01-07T16:22:25;5.60;77.80
43320;DHT22;28914;48.722;9.332;2024-01-07T16:27:44;5.60;77.90
43320;DHT22;28914;48.722;9.332;2024-01-07T16:33:04;5.50;78.00
43320;DHT22;28914;48.722;9.332;2024-01-07T16:38:24;5.50;78.00
43320;DHT22;28914;48.722;9.332;2024-01-07T16:43:43;5.50;78.20
43320;DHT22;28914;48.722;9.332;2024-01-07T16:49:03;5.50;78.40
43320;DHT22;28914;48.722;9.332;2024-01-07T16:54:22;5.50;78.40
43320;DHT22;28914;48.722;9.332;2024-01-07T16:59:41;5.40;78.50
43320;DHT22;28914;48.722;9.332;2024-01-07T17:05:01;5.30;78.30
43320;DHT22;28914;48.722;9.332;2024-01-07T17:10:20;5.20;78.30
43320;DHT22;28914;48.722;9.332;2024-01-07T17:15:40;5.20;78.60
43320;DHT22;28914;48.722;9.332;2024-01-07T17:21:01;5.10;78.50
43320;DHT22;28914;48.722;9.332;2024-01-07T17:26:20;5.10;78.50
43320;DHT22;28914;48.722;9.332;2024-01-07T17:31:40;5.00;78.40
43320;DHT22;28914;48.722;9.332;2024-01-07T17:36:59;5.00;78.20
43320;DHT22;28914;48.722;9.332;2024-01-07T17:42:18;5.00;78.40
43320;DHT22;28914;48.722;9.332;2024-01-07T17:47:38;4.90;78.20
43320;DHT22;28914;48.722;9.332;2024-01-07T17:52:57;4.90;78.30
43320;DHT22;28914;48.722;9.332;2024-01-07T17:58:17;4.90;78.30
43320;DHT22;28914;48.722;9.332;2024-01-07T18:03:36;4.90;78.00
43320;DHT22;28914;48.722;9.332;2024-01-07T18:08:55;4.80;77.80
43320;DHT22;28914;48.722;9.332;2024-01-07T18:14:15;4.80;77.60
43320;DHT22;28914;48.722;9.332;2024-01-07T18:19:35;4.80;77.40
43320;DHT22;28914;48.722;9.332;2024-01-07T18:24:54;4.80;77.70
43320;DHT22;28914;48.722;9.332;2024-01-07T18:30:13;4.80;77.70
43320;DHT22;28914;48.722;9.332;2024-01-07T18:35:33;4.70;77.50
43320;DHT22;28914;48.722;9.332;2024-01-07T18:40:54;4.70;77.40
43320;DHT22;28914;48.722;9.332;2024-01-07T18:46:13;4.70;77.20
43320;DHT22;28914;48.722;9.332;2024-01-07T18:51:32;4.70;76.30
43320;DHT22;28914;48.722;9.332;2024-01-07T18:56:52;4.60;76.30
43320;DHT22;28914;48.722;9.332;2024-01-07T19:02:11;4.60;77.00
43320;DHT22;28914;48.722;9.332;2024-01-07T19:07:30;4.60;77.20
43320;DHT22;28914;48.722;9.332;2024-01-07T19:12:49;4.60;77.10
43320;DHT22;28914;48.722;9.332;2024-01-07T19:18:08;4.60;77.10
43320;DHT22;28914;48.722;9.332;2024-01-07T19:23:28;4.60;77.20
43320;DHT22;28914;48.722;9.332;2024-01-07T19:28:47;4.50;77.20
43320;DHT22;28914;48.722;9.332;2024-01-07T19:34:07;4.50;77.30
43320;DHT22;28914;48.722;9.332;2024-01-07T19:39:26;4.60;77.30
43320;DHT22;28914;48.722;9.332;2024-01-07T19:44:45;4.60;77.10
43320;DHT22;28914;48.722;9.332;2024-01-07T19:50:05;4.50;77.00
43320;DHT22;28914;48.722;9.332;2024-01-07T19:55:24;4.50;76.90
43320;DHT22;28914;48.722;9.332;2024-01-07T20:00:43;4.50;77.00
43320;DHT22;28914;48.722;9.332;2024-01-07T20:06:03;4.40;77.10
43320;DHT22;28914;48.722;9.332;2024-01-07T20:11:24;4.40;77.30
43320;DHT22;28914;48.722;9.332;2024-01-07T20:16:43;4.30;77.30
43320;DHT22;28914;48.722;9.332;2024-01-07T20:22:02;4.20;77.50
43320;DHT22;28914;48.722;9.332;2024-01-07T20:27:21;4.20;77.70
43320;DHT22;28914;48.722;9.332;2024-01-07T20:32:41;4.10;77.80
43320;DHT22;28914;48.722;9.332;2024-01-07T20:38:00;4.10;78.00
43320;DHT22;28914;48.722;9.332;2024-01-07T20:43:19;4.00;78.00
43320;DHT22;28914;48.722;9.332;2024-01-07T20:48:39;3.90;78.00
43320;DHT22;28914;48.722;9.332;2024-01-07T20:53:58;3.90;78.00
43320;DHT22;28914;48.722;9.332;2024-01-07T20:59:17;3.80;78.00
43320;DHT22;28914;48.722;9.332;2024-01-07T21:04:36;3.80;78.00
43320;DHT22;28914;48.722;9.332;2024-01-07T21:09:56;3.80;78.20
43320;DHT22;28914;48.722;9.332;2024-01-07T21:15:15;3.70;78.10
43320;DHT22;28914;48.722;9.332;2024-01-07T21:20:34;3.70;78.00
43320;DHT22;28914;48.722;9.332;2024-01-07T21:25:54;3.70;77.70
43320;DHT22;28914;48.722;9.332;2024-01-07T21:31:22;3.70;77.50
43320;DHT22;28914;48.722;9.332;2024-01-07T21:36:41;3.60;77.60
43320;DHT22;28914;48.722;9.332;2024-01-07T21:42:00;3.50;77.50
43320;DHT22;28914;48.722;9.332;2024-01-07T21:47:20;3.50;77.40
43320;DHT22;28914;48.722;9.332;2024-01-07T21:52:39;3.40;77.30
43320;DHT22;28914;48.722;9.332;2024-01-07T21:57:59;3.40;77.20
43320;DHT22;28914;48.722;9.332;2024-01-07T22:03:18;3.40;77.30
43320;DHT22;28914;48.722;9.332;2024-01-07T22:08:37;3.40;77.10
43320;DHT22;28914;48.722;9.332;2024-01-07T22:13:57;3.40;77.00
43320;DHT22;28914;48.722;9.332;2024-01-07T22:19:17;3.30;76.80
43320;DHT22;28914;48.722;9.332;2024-01-07T22:24:36;3.30;76.80
43320;DHT22;28914;48.722;9.332;2024-01-07T22:29:55;3.30;76.90
43320;DHT22;28914;48.722;9.332;2024-01-07T22:35:14;3.30;77.10
43320;DHT22;28914;48.722;9.332;2024-01-07T22:40:34;3.20;77.20
43320;DHT22;28914;48.722;9.332;2024-01-07T22:45:53;3.20;77.40
43320;DHT22;28914;48.722;9.332;2024-01-07T22:51:13;3.10;77.40
43320;DHT22;28914;48.722;9.332;2024-01-07T22:56:32;3.10;77.20
43320;DHT22;28914;48.722;9.332;2024-01-07T23:01:51;3.10;77.50
43320;DHT22;28914;48.722;9.332;2024-01-07T23:07:10;3.10;77.50
43320;DHT22;28914;48.722;9.332;2024-01-07T23:12:29;3.20;77.30
43320;DHT22;28914;48.722;9.332;2024-01-07T23:17:49;3.10;77.20
43320;DHT22;28914;48.722;9.332;2024-01-07T23:23:11;3.10;77.20
43320;DHT22;28914;48.722;9.332;2024-01-07T23:28:30;3.10;77.30
43320;DHT22;28914;48.722;9.332;2024-01-07T23:33:49;3.10;77.20
43320;DHT22;28914;48.722;9.332;2024-01-07T23:39:09;3.10;77.20
43320;DHT22;28914;48.722;9.332;2024-01-07T23:44:30;3.10;76.80
43320;DHT22;28914;48.722;9.332;2024-01-07T23:49:49;3.10;76.40
43320;DHT22;28914;48.722;9.332;2024-01-07T23:55:09;3.10;75.80
